sensor_id;sensor_type;location;lat;lon;timestamp;P1;durP1;ratioP1;P2;durP2;ratioP2
4292;SDS011;2160;51.172;6.808;2024-03-25T05:02:39;9.67;;;4.30;;
4292;SDS011;2160;51.172;6.808;2024-03-25T05:05:08;5.03;;;4.53;;
4292;SDS011;2160;51.172;6.808;2024-03-25T05:07:37;12.77;;;5.93;;
4292;SDS011;2160;51.172;6.808;2024-03-25T05:10:12;8.63;;;3.60;;
4292;SDS011;2160;51.172;6.808;2024-03-25T05:12:39;7.63;;;4.27;;
4292;SDS011;2160;51.172;6.808;2024-03-25T05:15:08;11.70;;;5.30;;
4292;SDS011;2160;51.172;6.808;2024-03-25T05:17:42;6.70;;;4.70;;
4292;SDS011;2160;51.172;6.808;2024-03-25T05:20:09;7.60;;;4.87;;
4292;SDS011;2160;51.172;6.808;2024-03-25T05:22:36;7.10;;;4.80;;
4292;SDS011;2160;51.172;6.808;2024-03-25T05:25:03;6.57;;;3.90;;
4292;SDS011;2160;51.172;6.808;2024-03-25T05:27:33;14.93;;;4.30;;
4292;SDS011;2160;51.172;6.808;2024-03-25T05:29:59;5.40;;;4.90;;
4292;SDS011;2160;51.172;6.808;2024-03-25T05:32:33;5.57;;;4.30;;
4292;SDS011;2160;51.172;6.808;2024-03-25T05:35:01;4.83;;;4.20;;
4292;SDS011;2160;51.172;6.808;2024-03-25T05:37:28;6.53;;;4.20;;
4292;SDS011;2160;51.172;6.808;2024-03-25T05:39:54;6.27;;;4.83;;
4292;SDS011;2160;51.172;6.808;2024-03-25T05:42:21;9.13;;;5.10;;
4292;SDS011;2160;51.172;6.808;2024-03-25T05:44:47;7.87;;;5.00;;
4292;SDS011;2160;51.172;6.808;2024-03-25T05:47:14;4.83;;;4.40;;
4292;SDS011;2160;51.172;6.808;2024-03-25T05:49:46;5.23;;;4.47;;
4292;SDS011;2160;51.172;6.808;2024-03-25T05:52:14;12.23;;;5.50;;
4292;SDS011;2160;51.172;6.808;2024-03-25T05:54:45;5.60;;;5.00;;
4292;SDS011;2160;51.172;6.808;2024-03-25T05:57:14;10.43;;;6.13;;
4292;SDS011;2160;51.172;6.808;2024-03-25T05:59:41;14.83;;;5.53;;
4292;SDS011;2160;51.172;6.808;2024-03-25T06:02:07;24.70;;;6.13;;
4292;SDS011;2160;51.172;6.808;2024-03-25T06:04:34;11.57;;;6.87;;
4292;SDS011;2160;51.172;6.808;2024-03-25T06:07:01;8.87;;;6.90;;
4292;SDS011;2160;51.172;6.808;2024-03-25T06:09:29;20.10;;;6.20;;
4292;SDS011;2160;51.172;6.808;2024-03-25T06:11:56;6.73;;;4.97;;
4292;SDS011;2160;51.172;6.808;2024-03-25T06:14:22;12.00;;;5.87;;
4292;SDS011;2160;51.172;6.808;2024-03-25T06:16:49;12.33;;;6.30;;
4292;SDS011;2160;51.172;6.808;2024-03-25T06:19:15;6.17;;;5.57;;
4292;SDS011;2160;51.172;6.808;2024-03-25T06:21:45;12.80;;;6.43;;
4292;SDS011;2160;51.172;6.808;2024-03-25T06:24:15;18.30;;;6.13;;
4292;SDS011;2160;51.172;6.808;2024-03-25T06:26:44;10.73;;;6.50;;
4292;SDS011;2160;51.172;6.808;2024-03-25T06:29:14;15.03;;;5.80;;
4292;SDS011;2160;51.172;6.808;2024-03-25T06:31:40;16.23;;;5.50;;
4292;SDS011;2160;51.172;6.808;2024-03-25T06:34:28;13.13;;;6.40;;
4292;SDS011;2160;51.172;6.808;2024-03-25T06:37:00;10.97;;;4.80;;
4292;SDS011;2160;51.172;6.808;2024-03-25T06:39:27;11.30;;;6.60;;
4292;SDS011;2160;51.172;6.808;2024-03-25T06:41:58;18.57;;;7.13;;
4292;SDS011;2160;51.172;6.808;2024-03-25T06:44:28;9.33;;;6.07;;
4292;SDS011;2160;51.172;6.808;2024-03-25T06:46:57;14.13;;;5.83;;
4292;SDS011;2160;51.172;6.808;2024-03-25T06:49:23;8.93;;;5.93;;
4292;SDS011;2160;51.172;6.808;2024-03-25T06:51:53;13.50;;;6.87;;
4292;SDS011;2160;51.172;6.808;2024-03-25T06:54:22;10.30;;;4.73;;
4292;SDS011;2160;51.172;6.808;2024-03-25T06:56:51;11.20;;;5.80;;
4292;SDS011;2160;51.172;6.808;2024-03-25T06:59:29;6.15;;;4.65;;
4292;SDS011;2160;51.172;6.808;2024-03-25T07:02:01;10.63;;;5.00;;
4292;SDS011;2160;51.172;6.808;2024-03-25T07:04:34;10.53;;;6.17;;
4292;SDS011;2160;51.172;6.808;2024-03-25T07:07:00;9.03;;;6.47;;
4292;SDS011;2160;51.172;6.808;2024-03-25T07:09:32;7.60;;;4.70;;
4292;SDS011;2160;51.172;6.808;2024-03-25T07:12:03;9.90;;;4.27;;
4292;SDS011;2160;51.172;6.808;2024-03-25T07:14:41;8.23;;;4.23;;
4292;SDS011;2160;51.172;6.808;2024-03-25T07:17:15;9.63;;;4.30;;
4292;SDS011;2160;51.172;6.808;2024-03-25T07:19:42;11.50;;;4.97;;
4292;SDS011;2160;51.172;6.808;2024-03-25T07:22:09;9.17;;;5.73;;
4292;SDS011;2160;51.172;6.808;2024-03-25T07:24:36;17.40;;;4.67;;
4292;SDS011;2160;51.172;6.808;2024-03-25T07:27:06;8.37;;;4.20;;
4292;SDS011;2160;51.172;6.808;2024-03-25T07:29:34;19.97;;;5.30;;
4292;SDS011;2160;51.172;6.808;2024-03-25T07:32:07;6.10;;;4.30;;
4292;SDS011;2160;51.172;6.808;2024-03-25T07:34:39;5.47;;;4.00;;
4292;SDS011;2160;51.172;6.808;2024-03-25T07:37:06;7.23;;;4.60;;
4292;SDS011;2160;51.172;6.808;2024-03-25T07:39:34;11.77;;;5.83;;
4292;SDS011;2160;51.172;6.808;2024-03-25T07:42:04;4.37;;;3.70;;
4292;SDS011;2160;51.172;6.808;2024-03-25T07:44:31;8.10;;;3.67;;
4292;SDS011;2160;51.172;6.808;2024-03-25T07:46:57;5.70;;;4.97;;
4292;SDS011;2160;51.172;6.808;2024-03-25T07:49:28;10.63;;;4.13;;
4292;SDS011;2160;51.172;6.808;2024-03-25T07:51:56;8.03;;;5.17;;
4292;SDS011;2160;51.172;6.808;2024-03-25T07:54:25;9.20;;;5.10;;
4292;SDS011;2160;51.172;6.808;2024-03-25T07:56:52;14.97;;;6.67;;
4292;SDS011;2160;51.172;6.808;2024-03-25T07:59:18;10.20;;;4.90;;
4292;SDS011;2160;51.172;6.808;2024-03-25T08:01:46;12.20;;;5.83;;
4292;SDS011;2160;51.172;6.808;2024-03-25T08:04:13;9.03;;;5.90;;
4292;SDS011;2160;51.172;6.808;2024-03-25T08:06:44;14.90;;;4.90;;
4292;SDS011;2160;51.172;6.808;2024-03-25T08:09:10;7.73;;;5.23;;
4292;SDS011;2160;51.172;6.808;2024-03-25T08:11:37;8.53;;;4.97;;
4292;SDS011;2160;51.172;6.808;2024-03-25T08:14:08;12.73;;;4.90;;
4292;SDS011;2160;51.172;6.808;2024-03-25T08:16:34;6.00;;;4.10;;
4292;SDS011;2160;51.172;6.808;2024-03-25T08:19:01;7.20;;;4.20;;
4292;SDS011;2160;51.172;6.808;2024-03-25T08:21:28;7.20;;;4.17;;
4292;SDS011;2160;51.172;6.808;2024-03-25T08:24:00;5.77;;;4.57;;
4292;SDS011;2160;51.172;6.808;2024-03-25T08:26:27;9.40;;;4.90;;
4292;SDS011;2160;51.172;6.808;2024-03-25T08:28:54;4.30;;;3.73;;
4292;SDS011;2160;51.172;6.808;2024-03-25T08:31:24;7.13;;;4.40;;
4292;SDS011;2160;51.172;6.808;2024-03-25T08:33:51;7.17;;;4.00;;
4292;SDS011;2160;51.172;6.808;2024-03-25T08:36:22;16.00;;;4.70;;
4292;SDS011;2160;51.172;6.808;2024-03-25T08:38:49;5.37;;;3.57;;
4292;SDS011;2160;51.172;6.808;2024-03-25T08:41:22;4.50;;;3.90;;
4292;SDS011;2160;51.172;6.808;2024-03-25T08:43:51;8.90;;;4.07;;
4292;SDS011;2160;51.172;6.808;2024-03-25T08:46:18;8.67;;;3.50;;
4292;SDS011;2160;51.172;6.808;2024-03-25T08:48:50;7.20;;;3.20;;
4292;SDS011;2160;51.172;6.808;2024-03-25T08:51:19;3.97;;;3.00;;
4292;SDS011;2160;51.172;6.808;2024-03-25T08:53:46;8.73;;;4.00;;
4292;SDS011;2160;51.172;6.808;2024-03-25T08:56:16;8.53;;;3.60;;
4292;SDS011;2160;51.172;6.808;2024-03-25T08:58:50;4.43;;;3.63;;
4292;SDS011;2160;51.172;6.808;2024-03-25T09:01:23;6.27;;;3.00;;
4292;SDS011;2160;51.172;6.808;2024-03-25T09:04:01;8.30;;;3.97;;
4292;SDS011;2160;51.172;6.808;2024-03-25T09:06:32;6.57;;;2.67;;
4292;SDS011;2160;51.172;6.808;2024-03-25T09:09:01;5.07;;;3.33;;
4292;SDS011;2160;51.172;6.808;2024-03-25T09:11:50;4.50;;;3.20;;
4292;SDS011;2160;51.172;6.808;2024-03-25T09:14:20;3.23;;;3.03;;
4292;SDS011;2160;51.172;6.808;2024-03-25T09:16:47;4.73;;;3.47;;
4292;SDS011;2160;51.172;6.808;2024-03-25T09:19:19;6.33;;;3.00;;
4292;SDS011;2160;51.172;6.808;2024-03-25T09:21:51;4.63;;;2.73;;
4292;SDS011;2160;51.172;6.808;2024-03-25T09:24:18;5.93;;;2.97;;
4292;SDS011;2160;51.172;6.808;2024-03-25T09:26:51;15.93;;;3.27;;
4292;SDS011;2160;51.172;6.808;2024-03-25T09:29:18;5.70;;;3.20;;
4292;SDS011;2160;51.172;6.808;2024-03-25T09:31:48;5.30;;;3.20;;
4292;SDS011;2160;51.172;6.808;2024-03-25T09:34:25;13.90;;;3.43;;
4292;SDS011;2160;51.172;6.808;2024-03-25T09:36:55;6.30;;;4.30;;
4292;SDS011;2160;51.172;6.808;2024-03-25T09:39:25;9.07;;;2.47;;
4292;SDS011;2160;51.172;6.808;2024-03-25T09:41:56;2.70;;;2.50;;
4292;SDS011;2160;51.172;6.808;2024-03-25T09:44:27;4.70;;;2.73;;
4292;SDS011;2160;51.172;6.808;2024-03-25T09:47:02;2.30;;;2.10;;
4292;SDS011;2160;51.172;6.808;2024-03-25T09:49:32;4.80;;;3.13;;
4292;SDS011;2160;51.172;6.808;2024-03-25T09:52:09;4.73;;;4.40;;
4292;SDS011;2160;51.172;6.808;2024-03-25T09:54:43;6.53;;;3.23;;
4292;SDS011;2160;51.172;6.808;2024-03-25T09:57:13;6.33;;;2.40;;
4292;SDS011;2160;51.172;6.808;2024-03-25T09:59:46;8.23;;;3.10;;
4292;SDS011;2160;51.172;6.808;2024-03-25T10:02:16;8.33;;;3.47;;
4292;SDS011;2160;51.172;6.808;2024-03-25T10:04:48;9.17;;;3.67;;
4292;SDS011;2160;51.172;6.808;2024-03-25T10:07:21;10.33;;;4.70;;
4292;SDS011;2160;51.172;6.808;2024-03-25T10:09:54;7.53;;;3.93;;
4292;SDS011;2160;51.172;6.808;2024-03-25T10:12:30;8.23;;;4.13;;
4292;SDS011;2160;51.172;6.808;2024-03-25T10:15:03;8.40;;;4.10;;
4292;SDS011;2160;51.172;6.808;2024-03-25T10:17:31;8.10;;;4.00;;
4292;SDS011;2160;51.172;6.808;2024-03-25T10:20:05;9.27;;;3.53;;
4292;SDS011;2160;51.172;6.808;2024-03-25T10:22:42;7.80;;;3.80;;
4292;SDS011;2160;51.172;6.808;2024-03-25T10:25:22;9.40;;;4.17;;
4292;SDS011;2160;51.172;6.808;2024-03-25T10:27:58;6.73;;;3.53;;
4292;SDS011;2160;51.172;6.808;2024-03-25T10:30:33;6.67;;;3.37;;
4292;SDS011;2160;51.172;6.808;2024-03-25T10:33:03;6.30;;;4.40;;
4292;SDS011;2160;51.172;6.808;2024-03-25T10:35:40;3.87;;;3.33;;
4292;SDS011;2160;51.172;6.808;2024-03-25T10:38:09;7.30;;;3.67;;
4292;SDS011;2160;51.172;6.808;2024-03-25T10:40:40;7.30;;;3.30;;
4292;SDS011;2160;51.172;6.808;2024-03-25T10:43:16;7.03;;;3.83;;
4292;SDS011;2160;51.172;6.808;2024-03-25T10:46:00;6.10;;;3.60;;
4292;SDS011;2160;51.172;6.808;2024-03-25T10:48:34;4.50;;;3.60;;
4292;SDS011;2160;51.172;6.808;2024-03-25T10:51:03;7.17;;;4.37;;
4292;SDS011;2160;51.172;6.808;2024-03-25T10:53:41;9.73;;;3.80;;
4292;SDS011;2160;51.172;6.808;2024-03-25T10:56:17;4.00;;;3.60;;
4292;SDS011;2160;51.172;6.808;2024-03-25T10:58:51;5.93;;;3.97;;
4292;SDS011;2160;51.172;6.808;2024-03-25T11:01:25;6.70;;;4.30;;
4292;SDS011;2160;51.172;6.808;2024-03-25T11:03:57;6.33;;;3.77;;
4292;SDS011;2160;51.172;6.808;2024-03-25T11:06:29;8.40;;;4.40;;
4292;SDS011;2160;51.172;6.808;2024-03-25T11:09:00;5.77;;;3.00;;
4292;SDS011;2160;51.172;6.808;2024-03-25T11:11:38;5.20;;;3.70;;
4292;SDS011;2160;51.172;6.808;2024-03-25T11:14:24;5.00;;;3.70;;
4292;SDS011;2160;51.172;6.808;2024-03-25T11:16:56;6.90;;;3.00;;
4292;SDS011;2160;51.172;6.808;2024-03-25T11:19:42;3.73;;;2.93;;
4292;SDS011;2160;51.172;6.808;2024-03-25T11:22:11;3.43;;;3.13;;
4292;SDS011;2160;51.172;6.808;2024-03-25T11:24:43;5.23;;;3.37;;
4292;SDS011;2160;51.172;6.808;2024-03-25T11:27:13;5.73;;;2.90;;
4292;SDS011;2160;51.172;6.808;2024-03-25T11:29:49;6.43;;;3.87;;
4292;SDS011;2160;51.172;6.808;2024-03-25T11:32:19;4.30;;;4.00;;
4292;SDS011;2160;51.172;6.808;2024-03-25T11:34:50;3.43;;;3.13;;
4292;SDS011;2160;51.172;6.808;2024-03-25T11:37:25;6.63;;;3.00;;
4292;SDS011;2160;51.172;6.808;2024-03-25T11:40:02;3.20;;;2.90;;
4292;SDS011;2160;51.172;6.808;2024-03-25T11:42:42;5.90;;;2.97;;
4292;SDS011;2160;51.172;6.808;2024-03-25T11:45:22;9.43;;;2.60;;
4292;SDS011;2160;51.172;6.808;2024-03-25T11:47:55;6.30;;;3.07;;
4292;SDS011;2160;51.172;6.808;2024-03-25T11:50:25;4.47;;;2.80;;
4292;SDS011;2160;51.172;6.808;2024-03-25T11:52:59;6.23;;;2.93;;
4292;SDS011;2160;51.172;6.808;2024-03-25T11:55:31;4.87;;;2.90;;
4292;SDS011;2160;51.172;6.808;2024-03-25T11:58:05;3.13;;;2.53;;
4292;SDS011;2160;51.172;6.808;2024-03-25T12:00:50;4.83;;;3.20;;
4292;SDS011;2160;51.172;6.808;2024-03-25T12:03:17;5.50;;;3.50;;
4292;SDS011;2160;51.172;6.808;2024-03-25T12:05:54;6.27;;;3.87;;
4292;SDS011;2160;51.172;6.808;2024-03-25T12:08:23;3.63;;;3.00;;
4292;SDS011;2160;51.172;6.808;2024-03-25T12:10:50;6.53;;;3.93;;
4292;SDS011;2160;51.172;6.808;2024-03-25T12:13:46;6.30;;;3.97;;
4292;SDS011;2160;51.172;6.808;2024-03-25T12:16:17;3.30;;;3.00;;
4292;SDS011;2160;51.172;6.808;2024-03-25T12:18:47;4.63;;;3.13;;
4292;SDS011;2160;51.172;6.808;2024-03-25T12:21:22;6.80;;;3.67;;
4292;SDS011;2160;51.172;6.808;2024-03-25T12:23:55;5.10;;;3.10;;
4292;SDS011;2160;51.172;6.808;2024-03-25T12:26:22;5.23;;;3.10;;
4292;SDS011;2160;51.172;6.808;2024-03-25T12:28:53;3.53;;;3.10;;
4292;SDS011;2160;51.172;6.808;2024-03-25T12:31:28;7.67;;;3.27;;
4292;SDS011;2160;51.172;6.808;2024-03-25T12:34:01;4.57;;;3.27;;
4292;SDS011;2160;51.172;6.808;2024-03-25T12:36:38;3.40;;;2.77;;
4292;SDS011;2160;51.172;6.808;2024-03-25T12:39:14;2.93;;;2.40;;
4292;SDS011;2160;51.172;6.808;2024-03-25T12:41:45;3.50;;;2.10;;
4292;SDS011;2160;51.172;6.808;2024-03-25T12:44:19;2.40;;;2.07;;
4292;SDS011;2160;51.172;6.808;2024-03-25T12:46:54;6.40;;;2.53;;
4292;SDS011;2160;51.172;6.808;2024-03-25T12:49:27;5.30;;;2.67;;
4292;SDS011;2160;51.172;6.808;2024-03-25T12:52:01;3.07;;;2.30;;
4292;SDS011;2160;51.172;6.808;2024-03-25T12:54:39;2.20;;;2.00;;
4292;SDS011;2160;51.172;6.808;2024-03-25T12:57:08;2.63;;;2.30;;
4292;SDS011;2160;51.172;6.808;2024-03-25T12:59:41;3.30;;;2.53;;
4292;SDS011;2160;51.172;6.808;2024-03-25T13:02:18;3.13;;;2.20;;
4292;SDS011;2160;51.172;6.808;2024-03-25T13:04:48;4.93;;;2.90;;
4292;SDS011;2160;51.172;6.808;2024-03-25T13:07:18;2.97;;;1.97;;
4292;SDS011;2160;51.172;6.808;2024-03-25T13:09:56;2.10;;;1.90;;
4292;SDS011;2160;51.172;6.808;2024-03-25T13:12:31;2.80;;;2.60;;
4292;SDS011;2160;51.172;6.808;2024-03-25T13:15:06;5.20;;;2.40;;
4292;SDS011;2160;51.172;6.808;2024-03-25T13:17:42;2.60;;;2.30;;
4292;SDS011;2160;51.172;6.808;2024-03-25T13:20:13;3.57;;;2.17;;
4292;SDS011;2160;51.172;6.808;2024-03-25T13:22:44;2.23;;;2.03;;
4292;SDS011;2160;51.172;6.808;2024-03-25T13:25:17;2.40;;;1.70;;
4292;SDS011;2160;51.172;6.808;2024-03-25T13:27:57;2.20;;;1.90;;
4292;SDS011;2160;51.172;6.808;2024-03-25T13:30:27;2.97;;;2.20;;
4292;SDS011;2160;51.172;6.808;2024-03-25T13:33:03;4.03;;;3.03;;
4292;SDS011;2160;51.172;6.808;2024-03-25T13:35:34;1.97;;;1.77;;
4292;SDS011;2160;51.172;6.808;2024-03-25T13:38:01;4.53;;;1.87;;
4292;SDS011;2160;51.172;6.808;2024-03-25T13:40:36;2.47;;;1.87;;
4292;SDS011;2160;51.172;6.808;2024-03-25T13:43:11;4.27;;;3.10;;
4292;SDS011;2160;51.172;6.808;2024-03-25T13:45:45;2.63;;;1.97;;
4292;SDS011;2160;51.172;6.808;2024-03-25T13:48:17;2.10;;;1.83;;
4292;SDS011;2160;51.172;6.808;2024-03-25T13:50:52;3.97;;;1.83;;
4292;SDS011;2160;51.172;6.808;2024-03-25T13:53:32;2.57;;;1.40;;
4292;SDS011;2160;51.172;6.808;2024-03-25T13:56:14;3.57;;;1.80;;
4292;SDS011;2160;51.172;6.808;2024-03-25T13:58:47;3.00;;;1.93;;
4292;SDS011;2160;51.172;6.808;2024-03-25T14:01:21;1.80;;;1.40;;
4292;SDS011;2160;51.172;6.808;2024-03-25T14:03:59;4.63;;;1.87;;
4292;SDS011;2160;51.172;6.808;2024-03-25T14:06:34;2.43;;;2.00;;
4292;SDS011;2160;51.172;6.808;2024-03-25T14:09:26;2.80;;;1.77;;
4292;SDS011;2160;51.172;6.808;2024-03-25T14:11:58;2.30;;;1.47;;
4292;SDS011;2160;51.172;6.808;2024-03-25T14:14:31;2.57;;;1.50;;
4292;SDS011;2160;51.172;6.808;2024-03-25T14:17:04;2.50;;;1.30;;
4292;SDS011;2160;51.172;6.808;2024-03-25T14:19:35;2.43;;;1.47;;
4292;SDS011;2160;51.172;6.808;2024-03-25T14:22:17;1.80;;;1.70;;
4292;SDS011;2160;51.172;6.808;2024-03-25T14:24:53;1.70;;;1.60;;
4292;SDS011;2160;51.172;6.808;2024-03-25T14:27:32;1.90;;;1.10;;
4292;SDS011;2160;51.172;6.808;2024-03-25T14:30:09;2.80;;;1.40;;
4292;SDS011;2160;51.172;6.808;2024-03-25T14:32:43;2.40;;;1.47;;
4292;SDS011;2160;51.172;6.808;2024-03-25T14:35:30;3.03;;;1.70;;
4292;SDS011;2160;51.172;6.808;2024-03-25T14:38:11;2.40;;;1.87;;
4292;SDS011;2160;51.172;6.808;2024-03-25T14:40:49;2.73;;;2.13;;
4292;SDS011;2160;51.172;6.808;2024-03-25T14:43:28;2.53;;;1.83;;
4292;SDS011;2160;51.172;6.808;2024-03-25T14:46:03;2.03;;;1.50;;
4292;SDS011;2160;51.172;6.808;2024-03-25T14:48:35;2.30;;;1.67;;
4292;SDS011;2160;51.172;6.808;2024-03-25T14:51:18;4.20;;;1.27;;
4292;SDS011;2160;51.172;6.808;2024-03-25T14:53:55;1.63;;;1.27;;
4292;SDS011;2160;51.172;6.808;2024-03-25T14:56:28;1.83;;;1.30;;
4292;SDS011;2160;51.172;6.808;2024-03-25T14:58:58;2.70;;;1.60;;
4292;SDS011;2160;51.172;6.808;2024-03-25T15:01:33;2.47;;;1.50;;
4292;SDS011;2160;51.172;6.808;2024-03-25T15:04:14;1.73;;;1.63;;
4292;SDS011;2160;51.172;6.808;2024-03-25T15:06:52;1.20;;;1.10;;
4292;SDS011;2160;51.172;6.808;2024-03-25T15:09:43;1.63;;;1.53;;
4292;SDS011;2160;51.172;6.808;2024-03-25T15:12:15;3.57;;;1.43;;
4292;SDS011;2160;51.172;6.808;2024-03-25T15:14:53;1.30;;;1.20;;
4292;SDS011;2160;51.172;6.808;2024-03-25T15:17:25;7.80;;;1.87;;
4292;SDS011;2160;51.172;6.808;2024-03-25T15:19:56;1.87;;;1.77;;
4292;SDS011;2160;51.172;6.808;2024-03-25T15:22:45;2.07;;;1.30;;
4292;SDS011;2160;51.172;6.808;2024-03-25T15:25:17;5.17;;;2.33;;
4292;SDS011;2160;51.172;6.808;2024-03-25T15:27:58;4.60;;;1.50;;
4292;SDS011;2160;51.172;6.808;2024-03-25T15:30:33;2.37;;;1.90;;
4292;SDS011;2160;51.172;6.808;2024-03-25T15:33:10;1.97;;;1.87;;
4292;SDS011;2160;51.172;6.808;2024-03-25T15:35:51;1.50;;;1.40;;
4292;SDS011;2160;51.172;6.808;2024-03-25T15:38:28;3.73;;;1.57;;
4292;SDS011;2160;51.172;6.808;2024-03-25T15:40:55;2.27;;;1.87;;
4292;SDS011;2160;51.172;6.808;2024-03-25T15:43:26;2.10;;;1.90;;
4292;SDS011;2160;51.172;6.808;2024-03-25T15:45:59;2.27;;;2.10;;
4292;SDS011;2160;51.172;6.808;2024-03-25T15:48:32;2.93;;;2.07;;
4292;SDS011;2160;51.172;6.808;2024-03-25T15:50:59;1.83;;;1.73;;
4292;SDS011;2160;51.172;6.808;2024-03-25T15:53:31;3.30;;;1.67;;
4292;SDS011;2160;51.172;6.808;2024-03-25T15:56:01;2.77;;;2.13;;
4292;SDS011;2160;51.172;6.808;2024-03-25T15:58:31;2.43;;;1.83;;
4292;SDS011;2160;51.172;6.808;2024-03-25T16:00:58;4.80;;;1.80;;
4292;SDS011;2160;51.172;6.808;2024-03-25T16:03:27;3.00;;;1.67;;
4292;SDS011;2160;51.172;6.808;2024-03-25T16:05:59;2.20;;;1.67;;
4292;SDS011;2160;51.172;6.808;2024-03-25T16:08:32;3.73;;;2.00;;
4292;SDS011;2160;51.172;6.808;2024-03-25T16:11:02;1.67;;;1.40;;
4292;SDS011;2160;51.172;6.808;2024-03-25T16:13:31;3.70;;;1.83;;
4292;SDS011;2160;51.172;6.808;2024-03-25T16:16:01;2.40;;;1.77;;
4292;SDS011;2160;51.172;6.808;2024-03-25T16:18:31;1.70;;;1.60;;
4292;SDS011;2160;51.172;6.808;2024-03-25T16:20:57;2.03;;;1.70;;
4292;SDS011;2160;51.172;6.808;2024-03-25T16:23:26;4.47;;;2.37;;
4292;SDS011;2160;51.172;6.808;2024-03-25T16:25:55;2.00;;;1.80;;
4292;SDS011;2160;51.172;6.808;2024-03-25T16:28:21;2.13;;;1.70;;
4292;SDS011;2160;51.172;6.808;2024-03-25T16:30:48;1.80;;;1.50;;
4292;SDS011;2160;51.172;6.808;2024-03-25T16:33:15;1.93;;;1.80;;
4292;SDS011;2160;51.172;6.808;2024-03-25T16:35:41;3.17;;;1.67;;
4292;SDS011;2160;51.172;6.808;2024-03-25T16:38:09;1.63;;;1.50;;
4292;SDS011;2160;51.172;6.808;2024-03-25T16:40:36;1.80;;;1.63;;
4292;SDS011;2160;51.172;6.808;2024-03-25T16:43:07;2.33;;;1.47;;
4292;SDS011;2160;51.172;6.808;2024-03-25T16:45:39;3.17;;;1.67;;
4292;SDS011;2160;51.172;6.808;2024-03-25T16:48:13;3.77;;;2.20;;
4292;SDS011;2160;51.172;6.808;2024-03-25T16:50:39;4.27;;;2.00;;
4292;SDS011;2160;51.172;6.808;2024-03-25T16:53:15;2.50;;;1.80;;
4292;SDS011;2160;51.172;6.808;2024-03-25T16:55:48;3.60;;;1.80;;
4292;SDS011;2160;51.172;6.808;2024-03-25T16:58:17;2.70;;;1.90;;
4292;SDS011;2160;51.172;6.808;2024-03-25T17:00:44;2.40;;;2.30;;
4292;SDS011;2160;51.172;6.808;2024-03-25T17:03:10;3.83;;;1.63;;
4292;SDS011;2160;51.172;6.808;2024-03-25T17:05:37;1.60;;;1.50;;
4292;SDS011;2160;51.172;6.808;2024-03-25T17:08:03;1.67;;;1.57;;
4292;SDS011;2160;51.172;6.808;2024-03-25T17:10:30;5.30;;;1.80;;
4292;SDS011;2160;51.172;6.808;2024-03-25T17:12:56;7.43;;;1.87;;
4292;SDS011;2160;51.172;6.808;2024-03-25T17:15:24;1.67;;;1.57;;
4292;SDS011;2160;51.172;6.808;2024-03-25T17:17:50;1.60;;;1.50;;
4292;SDS011;2160;51.172;6.808;2024-03-25T17:20:16;2.63;;;1.57;;
4292;SDS011;2160;51.172;6.808;2024-03-25T17:22:43;3.60;;;1.80;;
4292;SDS011;2160;51.172;6.808;2024-03-25T17:25:09;3.00;;;1.50;;
4292;SDS011;2160;51.172;6.808;2024-03-25T17:27:35;2.33;;;1.60;;
4292;SDS011;2160;51.172;6.808;2024-03-25T17:30:01;1.70;;;1.60;;
4292;SDS011;2160;51.172;6.808;2024-03-25T17:32:29;2.67;;;1.60;;
4292;SDS011;2160;51.172;6.808;2024-03-25T17:34:55;1.70;;;1.60;;
4292;SDS011;2160;51.172;6.808;2024-03-25T17:37:21;2.83;;;1.70;;
4292;SDS011;2160;51.172;6.808;2024-03-25T17:39:47;1.63;;;1.53;;
4292;SDS011;2160;51.172;6.808;2024-03-25T17:42:13;1.97;;;1.87;;
4292;SDS011;2160;51.172;6.808;2024-03-25T17:44:39;2.20;;;1.63;;
4292;SDS011;2160;51.172;6.808;2024-03-25T17:47:06;3.03;;;1.40;;
4292;SDS011;2160;51.172;6.808;2024-03-25T17:49:33;1.80;;;1.70;;
4292;SDS011;2160;51.172;6.808;2024-03-25T17:51:59;1.40;;;1.40;;
4292;SDS011;2160;51.172;6.808;2024-03-25T17:54:25;4.40;;;2.30;;
4292;SDS011;2160;51.172;6.808;2024-03-25T17:56:51;6.63;;;2.07;;
4292;SDS011;2160;51.172;6.808;2024-03-25T17:59:18;2.30;;;1.50;;
4292;SDS011;2160;51.172;6.808;2024-03-25T18:01:45;1.90;;;1.80;;
4292;SDS011;2160;51.172;6.808;2024-03-25T18:04:11;2.10;;;1.90;;
4292;SDS011;2160;51.172;6.808;2024-03-25T18:06:38;2.20;;;2.07;;
4292;SDS011;2160;51.172;6.808;2024-03-25T18:09:04;2.10;;;1.80;;
4292;SDS011;2160;51.172;6.808;2024-03-25T18:11:30;2.83;;;2.00;;
4292;SDS011;2160;51.172;6.808;2024-03-25T18:13:57;1.80;;;1.70;;
4292;SDS011;2160;51.172;6.808;2024-03-25T18:16:23;1.87;;;1.77;;
4292;SDS011;2160;51.172;6.808;2024-03-25T18:18:49;3.03;;;2.23;;
4292;SDS011;2160;51.172;6.808;2024-03-25T18:21:15;3.73;;;1.80;;
4292;SDS011;2160;51.172;6.808;2024-03-25T18:23:43;2.30;;;2.10;;
4292;SDS011;2160;51.172;6.808;2024-03-25T18:26:09;2.60;;;2.40;;
4292;SDS011;2160;51.172;6.808;2024-03-25T18:28:35;6.20;;;2.20;;
4292;SDS011;2160;51.172;6.808;2024-03-25T18:31:01;3.90;;;2.33;;
4292;SDS011;2160;51.172;6.808;2024-03-25T18:33:27;2.27;;;2.13;;
4292;SDS011;2160;51.172;6.808;2024-03-25T18:35:53;2.23;;;2.13;;
4292;SDS011;2160;51.172;6.808;2024-03-25T18:38:24;2.13;;;2.03;;
4292;SDS011;2160;51.172;6.808;2024-03-25T18:40:51;2.37;;;2.10;;
4292;SDS011;2160;51.172;6.808;2024-03-25T18:43:18;2.60;;;2.10;;
4292;SDS011;2160;51.172;6.808;2024-03-25T18:45:44;3.83;;;2.30;;
4292;SDS011;2160;51.172;6.808;2024-03-25T18:48:10;2.90;;;2.20;;
4292;SDS011;2160;51.172;6.808;2024-03-25T18:50:36;2.90;;;2.60;;
4292;SDS011;2160;51.172;6.808;2024-03-25T18:53:03;3.33;;;2.40;;
4292;SDS011;2160;51.172;6.808;2024-03-25T18:55:29;2.73;;;2.53;;
4292;SDS011;2160;51.172;6.808;2024-03-25T18:57:56;3.10;;;2.30;;
4292;SDS011;2160;51.172;6.808;2024-03-25T19:00:22;2.40;;;2.20;;
4292;SDS011;2160;51.172;6.808;2024-03-25T19:02:48;2.67;;;2.47;;
4292;SDS011;2160;51.172;6.808;2024-03-25T19:05:14;4.13;;;1.93;;
4292;SDS011;2160;51.172;6.808;2024-03-25T19:07:41;2.30;;;2.10;;
4292;SDS011;2160;51.172;6.808;2024-03-25T19:10:07;4.27;;;2.87;;
4292;SDS011;2160;51.172;6.808;2024-03-25T19:12:34;5.23;;;2.30;;
4292;SDS011;2160;51.172;6.808;2024-03-25T19:15:01;2.27;;;2.07;;
4292;SDS011;2160;51.172;6.808;2024-03-25T19:17:27;4.30;;;2.00;;
4292;SDS011;2160;51.172;6.808;2024-03-25T19:19:53;2.57;;;2.47;;
4292;SDS011;2160;51.172;6.808;2024-03-25T19:22:20;2.07;;;1.97;;
4292;SDS011;2160;51.172;6.808;2024-03-25T19:24:46;2.67;;;2.47;;
4292;SDS011;2160;51.172;6.808;2024-03-25T19:27:12;3.27;;;2.60;;
4292;SDS011;2160;51.172;6.808;2024-03-25T19:29:38;2.40;;;2.20;;
4292;SDS011;2160;51.172;6.808;2024-03-25T19:32:06;3.40;;;2.90;;
4292;SDS011;2160;51.172;6.808;2024-03-25T19:34:32;9.50;;;2.53;;
4292;SDS011;2160;51.172;6.808;2024-03-25T19:36:58;2.50;;;2.30;;
4292;SDS011;2160;51.172;6.808;2024-03-25T19:39:24;3.30;;;2.20;;
4292;SDS011;2160;51.172;6.808;2024-03-25T19:41:50;5.73;;;3.10;;
4292;SDS011;2160;51.172;6.808;2024-03-25T19:44:16;2.57;;;2.47;;
4292;SDS011;2160;51.172;6.808;2024-03-25T19:46:42;3.17;;;2.50;;
4292;SDS011;2160;51.172;6.808;2024-03-25T19:49:10;5.13;;;2.60;;
4292;SDS011;2160;51.172;6.808;2024-03-25T19:51:36;4.37;;;2.87;;
4292;SDS011;2160;51.172;6.808;2024-03-25T19:54:02;2.60;;;2.40;;
4292;SDS011;2160;51.172;6.808;2024-03-25T19:56:29;2.93;;;2.67;;
4292;SDS011;2160;51.172;6.808;2024-03-25T19:58:55;4.10;;;3.10;;
4292;SDS011;2160;51.172;6.808;2024-03-25T20:01:21;2.90;;;2.53;;
4292;SDS011;2160;51.172;6.808;2024-03-25T20:03:48;4.13;;;2.37;;
4292;SDS011;2160;51.172;6.808;2024-03-25T20:06:15;2.50;;;2.37;;
4292;SDS011;2160;51.172;6.808;2024-03-25T20:08:41;2.50;;;2.30;;
4292;SDS011;2160;51.172;6.808;2024-03-25T20:11:07;2.77;;;2.57;;
4292;SDS011;2160;51.172;6.808;2024-03-25T20:13:34;4.67;;;2.00;;
4292;SDS011;2160;51.172;6.808;2024-03-25T20:16:00;3.33;;;2.30;;
4292;SDS011;2160;51.172;6.808;2024-03-25T20:18:26;2.00;;;1.90;;
4292;SDS011;2160;51.172;6.808;2024-03-25T20:20:52;3.70;;;2.60;;
4292;SDS011;2160;51.172;6.808;2024-03-25T20:23:19;2.47;;;2.27;;
4292;SDS011;2160;51.172;6.808;2024-03-25T20:25:45;3.07;;;2.50;;
4292;SDS011;2160;51.172;6.808;2024-03-25T20:28:11;2.60;;;2.40;;
4292;SDS011;2160;51.172;6.808;2024-03-25T20:30:38;5.13;;;3.60;;
4292;SDS011;2160;51.172;6.808;2024-03-25T20:33:04;2.60;;;2.40;;
4292;SDS011;2160;51.172;6.808;2024-03-25T20:35:31;6.10;;;2.40;;
4292;SDS011;2160;51.172;6.808;2024-03-25T20:37:57;2.90;;;2.70;;